Terminal Aerodrome Forecast
Issued by NWS Cleveland, OH

Home | Current Version | Previous Version | Text Only | Print | Product List | Glossary Off
Versions: 1 2 3 4 5 6 7 8 9 10 11 12 13 14 15 16

000
FTUS41 KCLE 271700 RRA
TAFTOL
TAF
KTOL 271741Z 2718/2818 22006KT P6SM SCT025 BKN040
      TEMPO 2718/2722 3SM -TSRA OVC025CB
     FM272200 29008KT P6SM BKN040 OVC100
      TEMPO 2722/2802 5SM -SHRA BR OVC040
     FM280200 29006KT 5SM BR SCT060 BKN100
     FM280800 31010KT 5SM BR SCT006 OVC150
     FM281000 31010KT 5SM BR OVC006
     FM281400 34012KT P6SM BKN015
     FM281700 34012G20KT P6SM BKN035=

USA.gov is the U.S. government's official web portal to all federal, state and local government web resources and services.